Time,TemperatureF,DewpointF,PressureIn,WindDirection,WindDirectionDegrees,WindSpeedMPH,WindSpeedGustMPH,Humidity,HourlyPrecipIn,Conditions,Clouds,dailyrainin,SolarRadiationWatts/m^2,SoftwareType,DateUTC
2013-06-10 00:01:00,70.9,63.0,30.05,SW,228,0.0,0.0,76,0.00,RA,,0.00,0.0,WeatherDisplay:10.37,2013-06-10 04:01:00,
2013-06-10 00:02:00,70.9,63.0,30.05,SW,228,0.0,0.0,76,0.00,RA,,0.00,0.0,WeatherDisplay:10.37,2013-06-10 04:02:00,
2013-06-10 00:04:00,70.9,63.0,30.05,SW,228,0.0,0.0,76,0.00,RA,,0.00,0.0,WeatherDisplay:10.37,2013-06-10 04:04:00,
2013-06-10 00:09:00,70.9,63.3,30.04,SW,228,0.0,1.5,77,0.00,RA,,0.00,0.0,WeatherDisplay:10.37,2013-06-10 04:09:00,
2013-06-10 00:14:00,70.9,63.7,30.04,SSW,209,1.5,4.5,78,0.00,-RA,,0.00,0.0,WeatherDisplay:10.37,2013-06-10 04:14:00,
2013-06-10 00:19:00,70.9,64.1,30.04,SSW,206,4.2,4.6,79,0.00,-RA,,0.00,0.0,WeatherDisplay:10.37,2013-06-10 04:19:00,
2013-06-10 00:24:00,70.8,64.3,30.04,South,184,6.2,8.1,80,0.00,-RA,,0.00,0.0,WeatherDisplay:10.37,2013-06-10 04:24:00,
2013-06-10 00:29:00,70.8,64.7,30.04,SE,144,0.1,4.6,81,0.00,-RA,,0.00,0.0,WeatherDisplay:10.37,2013-06-10 04:29:00,
2013-06-10 00:34:00,70.8,65.0,30.04,ESE,111,1.5,6.0,82,0.00,-RA,,0.00,0.0,WeatherDisplay:10.37,2013-06-10 04:34:00,
2013-06-10 00:39:00,70.6,65.2,30.04,South,172,3.6,6.0,83,0.00,-RA,,0.00,0.0,WeatherDisplay:10.37,2013-06-10 04:39:00,
2013-06-10 00:44:00,70.6,65.5,30.04,South,169,0.1,1.5,84,0.00,-RA,,0.00,0.0,WeatherDisplay:10.37,2013-06-10 04:44:00,
2013-06-10 00:49:00,70.4,65.3,30.04,South,169,0.0,0.0,84,0.00,-RA,,0.00,0.0,WeatherDisplay:10.37,2013-06-10 04:49:00,
2013-06-10 00:54:00,70.3,65.6,30.04,South,169,0.1,1.5,85,0.00,OVC,,0.00,0.0,WeatherDisplay:10.37,2013-06-10 04:54:00,
2013-06-10 00:59:00,69.9,65.2,30.03,SSE,168,1.4,3.5,85,0.00,OVC,,0.00,0.0,WeatherDisplay:10.37,2013-06-10 04:59:00,
2013-06-10 01:04:00,69.6,64.9,30.03,SSE,168,0.0,0.0,85,0.00,OVC,,0.00,0.0,WeatherDisplay:10.37,2013-06-10 05:04:00,
2013-06-10 01:09:00,69.6,64.9,30.04,SSE,168,0.0,0.0,85,0.00,OVC,,0.00,0.0,WeatherDisplay:10.37,2013-06-10 05:09:00,
2013-06-10 01:14:00,69.4,64.7,30.04,SSE,168,0.0,0.0,85,0.00,OVC,,0.00,0.0,WeatherDisplay:10.37,2013-06-10 05:14:00,
2013-06-10 01:19:00,69.4,65.0,30.03,SSE,168,0.0,0.0,86,0.00,OVC,,0.00,0.0,WeatherDisplay:10.37,2013-06-10 05:19:00,
2013-06-10 01:24:00,69.3,64.9,30.04,SSE,168,0.0,0.0,86,0.00,OVC,,0.00,0.0,WeatherDisplay:10.37,2013-06-10 05:24:00,
2013-06-10 01:29:00,69.3,64.9,30.03,SSE,168,0.0,0.0,86,0.00,OVC,,0.00,0.0,WeatherDisplay:10.37,2013-06-10 05:29:00,
2013-06-10 01:34:00,69.1,65.1,30.03,SSE,168,0.0,0.0,87,0.00,OVC,,0.00,0.0,WeatherDisplay:10.37,2013-06-10 05:34:00,
2013-06-10 01:39:00,69.3,65.3,30.04,SSE,168,0.0,0.0,87,0.00,OVC,,0.00,0.0,WeatherDisplay:10.37,2013-06-10 05:39:00,
2013-06-10 01:44:00,69.6,65.9,30.04,SSE,168,0.0,0.0,88,0.00,OVC,,0.00,0.0,WeatherDisplay:10.37,2013-06-10 05:44:00,
2013-06-10 01:49:00,69.6,65.9,30.04,SSE,168,0.0,0.0,88,0.00,OVC,,0.00,0.0,WeatherDisplay:10.37,2013-06-10 05:49:00,
2013-06-10 01:54:00,69.9,66.2,30.04,SSE,168,1.6,4.6,88,0.00,OVC,,0.00,0.0,WeatherDisplay:10.37,2013-06-10 05:54:00,
2013-06-10 01:59:00,69.9,66.5,30.04,SSE,168,0.0,0.0,89,0.02,RA,,0.03,0.0,WeatherDisplay:10.37,2013-06-10 05:59:00,
2013-06-10 02:04:00,69.9,66.5,30.03,SSE,168,0.0,0.0,89,0.04,RA,,0.04,0.0,WeatherDisplay:10.37,2013-06-10 06:04:00,
2013-06-10 02:09:00,69.8,66.7,30.03,SSE,168,0.0,1.2,90,0.05,RA,,0.05,0.0,WeatherDisplay:10.37,2013-06-10 06:09:00,
2013-06-10 02:14:00,69.4,66.3,30.03,SSE,168,0.0,0.0,90,0.07,RA,,0.07,0.0,WeatherDisplay:10.37,2013-06-10 06:14:00,
2013-06-10 02:19:00,69.4,66.7,30.02,SSE,168,0.0,1.2,91,0.08,RA,,0.09,0.0,WeatherDisplay:10.37,2013-06-10 06:19:00,
2013-06-10 02:24:00,69.1,66.4,30.02,SSE,168,0.0,0.0,91,0.11,RA,,0.11,0.0,WeatherDisplay:10.37,2013-06-10 06:24:00,
2013-06-10 02:29:00,69.1,66.7,30.02,SSE,168,0.0,1.2,92,0.13,RA,,0.13,0.0,WeatherDisplay:10.37,2013-06-10 06:29:00,
2013-06-10 02:34:00,68.9,66.5,30.01,SSE,168,0.1,1.2,92,0.15,RA,,0.15,0.0,WeatherDisplay:10.37,2013-06-10 06:34:00,
2013-06-10 02:39:00,68.6,66.2,30.01,SSE,168,0.0,0.0,92,0.16,RA,,0.16,0.0,WeatherDisplay:10.37,2013-06-10 06:39:00,
2013-06-10 02:44:00,68.4,66.3,30.01,SSE,168,0.0,0.0,93,0.18,RA,,0.18,0.0,WeatherDisplay:10.37,2013-06-10 06:44:00,
2013-06-10 02:49:00,68.4,66.3,30.00,SSE,168,0.0,0.0,93,0.18,RA,,0.18,0.0,WeatherDisplay:10.37,2013-06-10 06:49:00,
2013-06-10 02:54:00,68.4,66.3,30.00,SSE,168,0.0,0.0,93,0.18,OVC,,0.19,0.0,WeatherDisplay:10.37,2013-06-10 06:54:00,
2013-06-10 02:59:00,68.3,66.5,30.00,SSE,168,0.8,3.5,94,0.16,RA,,0.19,0.0,WeatherDisplay:10.37,2013-06-10 06:59:00,
2013-06-10 03:04:00,68.1,66.3,30.00,SSE,168,0.0,0.0,94,0.15,OVC,,0.19,0.0,WeatherDisplay:10.37,2013-06-10 07:04:00,
2013-06-10 03:09:00,68.1,66.3,30.00,SSE,168,0.0,0.0,94,0.14,OVC,,0.19,0.0,WeatherDisplay:10.37,2013-06-10 07:09:00,
2013-06-10 03:14:00,67.9,66.1,30.00,SSE,168,0.1,1.5,94,0.12,OVC,,0.19,0.0,WeatherDisplay:10.37,2013-06-10 07:14:00,
2013-06-10 03:19:00,67.9,66.4,30.00,SSE,168,0.1,1.2,95,0.10,OVC,,0.19,0.0,WeatherDisplay:10.37,2013-06-10 07:19:00,
2013-06-10 03:24:00,67.8,66.3,30.00,SSE,168,0.1,1.5,95,0.08,OVC,,0.19,0.0,WeatherDisplay:10.37,2013-06-10 07:24:00,
2013-06-10 03:29:00,67.8,66.3,30.00,SSE,165,0.2,1.2,95,0.06,OVC,,0.19,0.0,WeatherDisplay:10.37,2013-06-10 07:29:00,
2013-06-10 03:34:00,67.8,66.3,30.00,SSE,148,2.4,4.6,95,0.04,-RA,,0.19,0.0,WeatherDisplay:10.37,2013-06-10 07:34:00,
2013-06-10 03:39:00,67.8,66.6,30.00,South,173,2.8,4.6,96,0.03,-RA,,0.19,0.0,WeatherDisplay:10.37,2013-06-10 07:39:00,
2013-06-10 03:44:00,67.6,66.4,30.00,SE,125,1.6,4.5,96,0.01,-RA,,0.19,0.0,WeatherDisplay:10.37,2013-06-10 07:44:00,
2013-06-10 03:49:00,67.6,66.4,30.00,SE,140,0.8,4.6,96,0.01,-RA,,0.19,0.0,WeatherDisplay:10.37,2013-06-10 07:49:00,
2013-06-10 03:54:00,67.6,66.4,30.00,SE,135,0.3,3.0,96,0.01,-RA,,0.19,0.0,WeatherDisplay:10.37,2013-06-10 07:54:00,
2013-06-10 03:59:00,67.6,66.4,30.00,SE,134,0.1,1.5,96,0.00,-RA,,0.19,0.0,WeatherDisplay:10.37,2013-06-10 07:59:00,
2013-06-10 04:04:00,67.6,66.4,30.00,SE,134,0.0,0.0,96,0.00,-RA,,0.19,0.0,WeatherDisplay:10.37,2013-06-10 08:04:00,
2013-06-10 04:09:00,67.6,66.4,30.00,SE,134,0.0,0.0,96,0.00,-RA,,0.19,0.0,WeatherDisplay:10.37,2013-06-10 08:09:00,
2013-06-10 04:14:00,67.6,66.4,30.00,SE,134,1.2,3.0,96,0.00,-RA,,0.19,0.0,WeatherDisplay:10.37,2013-06-10 08:14:00,
2013-06-10 04:19:00,67.6,66.7,30.00,SE,134,0.1,1.5,97,0.00,-RA,,0.19,0.0,WeatherDisplay:10.37,2013-06-10 08:19:00,
2013-06-10 04:24:00,67.8,66.9,30.01,SW,236,1.0,3.5,97,0.01,-RA,,0.20,0.0,WeatherDisplay:10.37,2013-06-10 08:24:00,
2013-06-10 04:29:00,67.9,67.0,30.01,SSE,161,7.3,8.1,97,0.01,-RA,,0.20,0.0,WeatherDisplay:10.37,2013-06-10 08:29:00,
2013-06-10 04:34:00,67.9,67.0,30.00,South,190,0.4,4.6,97,0.01,-RA,,0.20,0.0,WeatherDisplay:10.37,2013-06-10 08:34:00,
2013-06-10 04:39:00,67.9,67.0,30.00,South,190,0.0,0.0,97,0.01,-RA,,0.20,0.0,WeatherDisplay:10.37,2013-06-10 08:39:00,
2013-06-10 04:44:00,67.9,67.0,29.99,South,190,0.0,0.0,97,0.01,-RA,,0.20,0.0,WeatherDisplay:10.37,2013-06-10 08:44:00,
2013-06-10 04:49:00,67.9,67.0,29.99,ESE,121,1.0,1.5,97,0.02,-RA,,0.21,0.0,WeatherDisplay:10.37,2013-06-10 08:49:00,
2013-06-10 04:54:00,67.8,66.9,29.98,ESE,121,0.1,1.2,97,0.02,-RA,,0.21,0.0,WeatherDisplay:10.37,2013-06-10 08:54:00,
2013-06-10 04:59:00,67.8,66.9,29.99,ESE,121,0.0,1.2,97,0.02,-RA,,0.21,0.0,WeatherDisplay:10.37,2013-06-10 08:59:00,
2013-06-10 05:04:00,67.8,67.2,29.98,ESE,121,0.0,0.0,98,0.02,OVC,,0.21,0.0,WeatherDisplay:10.37,2013-06-10 09:04:00,
2013-06-10 05:09:00,67.8,67.2,29.98,ESE,121,0.0,0.0,98,0.02,OVC,,0.21,0.0,WeatherDisplay:10.37,2013-06-10 09:09:00,
2013-06-10 05:14:00,67.8,67.2,29.98,ESE,121,0.0,0.0,98,0.02,OVC,,0.21,0.0,WeatherDisplay:10.37,2013-06-10 09:14:00,
2013-06-10 05:19:00,67.6,67.0,29.98,ESE,121,0.0,0.0,98,0.02,OVC,,0.21,0.0,WeatherDisplay:10.37,2013-06-10 09:19:00,
2013-06-10 05:24:00,67.6,67.0,29.98,ESE,121,0.0,0.0,98,0.02,OVC,,0.21,0.0,WeatherDisplay:10.37,2013-06-10 09:24:00,
2013-06-10 05:29:00,67.6,67.0,29.98,ESE,121,0.0,3.5,98,0.01,OVC,,0.21,0.0,WeatherDisplay:10.37,2013-06-10 09:29:00,
2013-06-10 05:34:00,67.6,67.0,29.98,ESE,121,0.0,0.0,98,0.01,OVC,,0.21,0.0,WeatherDisplay:10.37,2013-06-10 09:34:00,
2013-06-10 05:39:00,67.6,67.0,29.98,ESE,121,0.1,1.2,98,0.01,OVC,,0.21,0.0,WeatherDisplay:10.37,2013-06-10 09:39:00,
2013-06-10 05:44:00,67.4,66.8,29.98,ESE,121,0.0,0.0,98,0.01,OVC,,0.21,0.0,WeatherDisplay:10.37,2013-06-10 09:44:00,
2013-06-10 05:49:00,67.4,66.8,29.97,ESE,121,0.0,0.0,98,0.00,OVC,,0.21,0.0,WeatherDisplay:10.37,2013-06-10 09:49:00,
2013-06-10 05:54:00,67.4,66.8,29.97,ESE,121,0.0,0.0,98,0.00,OVC,,0.21,0.0,WeatherDisplay:10.37,2013-06-10 09:54:00,
2013-06-10 05:59:00,67.4,66.8,29.98,ESE,121,0.0,1.2,98,0.00,OVC,,0.21,0.0,WeatherDisplay:10.37,2013-06-10 09:59:00,
2013-06-10 06:04:00,67.4,66.8,29.98,ESE,121,0.2,0.0,98,0.00,OVC,,0.21,0.0,WeatherDisplay:10.37,2013-06-10 10:04:00,
2013-06-10 06:09:00,67.4,66.8,29.98,ESE,121,0.0,0.0,98,0.00,OVC,,0.21,7.0,WeatherDisplay:10.37,2013-06-10 10:09:00,
2013-06-10 06:14:00,67.6,67.0,29.98,ESE,121,0.0,0.0,98,0.00,OVC,,0.21,7.0,WeatherDisplay:10.37,2013-06-10 10:14:00,
2013-06-10 06:19:00,67.6,67.0,29.98,ESE,121,0.1,1.2,98,0.00,OVC,,0.21,0.0,WeatherDisplay:10.37,2013-06-10 10:19:00,
2013-06-10 06:24:00,67.6,67.0,29.98,ESE,121,0.2,1.2,98,0.00,OVC,,0.21,5.0,WeatherDisplay:10.37,2013-06-10 10:24:00,
2013-06-10 06:29:00,67.8,67.2,29.98,ESE,121,0.1,1.2,98,0.00,OVC,,0.21,12.0,WeatherDisplay:10.37,2013-06-10 10:29:00,
2013-06-10 06:34:00,67.8,67.2,29.98,ESE,121,0.8,3.5,98,0.00,OVC,,0.21,21.0,WeatherDisplay:10.37,2013-06-10 10:34:00,
2013-06-10 06:39:00,67.9,67.6,29.98,SE,138,0.8,3.5,99,0.00,OVC,,0.21,21.0,WeatherDisplay:10.37,2013-06-10 10:39:00,
2013-06-10 06:44:00,67.9,67.6,29.98,SSW,197,0.8,8.1,99,0.00,OVC,,0.21,26.0,WeatherDisplay:10.37,2013-06-10 10:44:00,
2013-06-10 06:49:00,67.9,67.6,29.98,SSE,167,2.1,4.6,99,0.01,RA,,0.22,37.0,WeatherDisplay:10.37,2013-06-10 10:49:00,
2013-06-10 06:54:00,67.9,67.6,29.98,South,170,2.1,4.6,99,0.01,RA,,0.22,40.0,WeatherDisplay:10.37,2013-06-10 10:54:00,
2013-06-10 06:59:00,68.1,67.8,29.98,SE,129,2.1,4.5,99,0.01,OVC,,0.22,51.0,WeatherDisplay:10.37,2013-06-10 10:59:00,
2013-06-10 07:04:00,68.1,67.8,29.98,SE,135,0.7,4.5,99,0.01,OVC,,0.22,46.0,WeatherDisplay:10.37,2013-06-10 11:04:00,
2013-06-10 07:09:00,68.1,67.8,29.98,SE,134,0.0,1.2,99,0.02,RA,,0.23,47.0,WeatherDisplay:10.37,2013-06-10 11:09:00,
2013-06-10 07:14:00,68.1,67.8,29.98,ESE,123,6.0,8.1,99,0.02,RA,,0.23,53.0,WeatherDisplay:10.37,2013-06-10 11:14:00,
2013-06-10 07:19:00,68.1,67.8,29.98,ESE,119,0.0,3.5,99,0.02,OVC,,0.23,49.0,WeatherDisplay:10.37,2013-06-10 11:19:00,
2013-06-10 07:24:00,68.1,67.8,29.98,ESE,108,0.1,1.5,99,0.02,OVC,,0.23,47.0,WeatherDisplay:10.37,2013-06-10 11:24:00,
2013-06-10 07:29:00,68.1,67.8,29.98,ESE,105,0.1,1.2,99,0.03,RA,,0.24,49.0,WeatherDisplay:10.37,2013-06-10 11:29:00,
2013-06-10 07:34:00,68.3,68.0,29.98,ESE,109,0.3,1.5,99,0.03,RA,,0.24,56.0,WeatherDisplay:10.37,2013-06-10 11:34:00,
2013-06-10 07:39:00,68.3,68.0,29.98,SE,142,1.0,4.6,99,0.04,RA,,0.25,47.0,WeatherDisplay:10.37,2013-06-10 11:39:00,
2013-06-10 07:44:00,68.3,68.0,29.98,ESE,115,1.1,4.6,99,0.04,RA,,0.25,28.0,WeatherDisplay:10.37,2013-06-10 11:44:00,
2013-06-10 07:49:00,68.1,67.8,29.98,ESE,112,3.1,4.5,99,0.03,RA,,0.25,35.0,WeatherDisplay:10.37,2013-06-10 11:49:00,
2013-06-10 07:54:00,68.1,67.8,29.97,SE,137,0.0,1.2,99,0.03,OVC,,0.25,74.0,WeatherDisplay:10.37,2013-06-10 11:54:00,
2013-06-10 07:59:00,68.1,67.8,29.97,ESE,109,3.1,5.8,99,0.03,OVC,,0.25,84.0,WeatherDisplay:10.37,2013-06-10 11:59:00,
2013-06-10 08:04:00,68.3,68.0,29.97,ESE,108,1.8,4.6,99,0.04,RA,,0.26,104.0,WeatherDisplay:10.37,2013-06-10 12:04:00,
2013-06-10 08:09:00,68.3,68.0,29.97,East,80,0.9,3.5,99,0.03,RA,,0.26,67.0,WeatherDisplay:10.37,2013-06-10 12:09:00,
2013-06-10 08:14:00,68.3,68.0,29.97,East,99,5.1,8.1,99,0.03,-RA,,0.26,70.0,WeatherDisplay:10.37,2013-06-10 12:14:00,
2013-06-10 08:19:00,68.3,68.0,29.97,East,94,3.0,6.0,99,0.04,-RA,,0.27,81.0,WeatherDisplay:10.37,2013-06-10 12:19:00,
2013-06-10 08:24:00,68.3,68.0,29.97,SSE,155,3.7,10.4,99,0.04,-RA,,0.27,76.0,WeatherDisplay:10.37,2013-06-10 12:24:00,
2013-06-10 08:29:00,68.3,68.0,29.97,SE,131,0.3,8.1,99,0.03,-RA,,0.27,86.0,WeatherDisplay:10.37,2013-06-10 12:29:00,
2013-06-10 08:34:00,68.4,68.1,29.97,ESE,105,2.7,8.1,99,0.03,-RA,,0.27,113.0,WeatherDisplay:10.37,2013-06-10 12:34:00,
2013-06-10 08:39:00,68.6,68.3,29.97,East,90,3.3,9.2,99,0.02,-RA,,0.27,113.0,WeatherDisplay:10.37,2013-06-10 12:39:00,
2013-06-10 08:44:00,68.6,68.3,29.97,East,97,0.0,1.5,99,0.03,-RA,,0.28,107.0,WeatherDisplay:10.37,2013-06-10 12:44:00,
2013-06-10 08:49:00,68.6,68.3,29.97,SE,126,0.0,0.0,99,0.03,-RA,,0.28,107.0,WeatherDisplay:10.37,2013-06-10 12:49:00,
2013-06-10 08:54:00,68.6,68.3,29.97,SE,144,1.3,5.8,99,0.03,-RA,,0.28,100.0,WeatherDisplay:10.37,2013-06-10 12:54:00,
2013-06-10 08:59:00,68.6,68.3,29.97,South,178,4.4,8.1,99,0.03,-RA,,0.28,93.0,WeatherDisplay:10.37,2013-06-10 12:59:00,
2013-06-10 09:04:00,68.6,68.3,29.96,ESE,114,3.0,8.1,99,0.02,-RA,,0.28,113.0,WeatherDisplay:10.37,2013-06-10 13:04:00,
2013-06-10 09:09:00,68.8,68.5,29.96,South,190,1.4,4.6,99,0.03,-RA,,0.29,98.0,WeatherDisplay:10.37,2013-06-10 13:09:00,
2013-06-10 09:14:00,68.9,68.6,29.96,SSW,211,0.9,3.5,99,0.03,-RA,,0.29,118.0,WeatherDisplay:10.37,2013-06-10 13:14:00,
2013-06-10 09:19:00,68.9,68.6,29.95,South,169,5.3,9.2,99,0.03,-RA,,0.30,192.0,WeatherDisplay:10.37,2013-06-10 13:19:00,
2013-06-10 09:24:00,69.1,68.8,29.95,SSE,159,7.7,9.2,99,0.03,RA,,0.30,158.0,WeatherDisplay:10.37,2013-06-10 13:24:00,
2013-06-10 09:29:00,69.1,68.8,29.95,South,169,5.4,5.8,99,0.04,RA,,0.31,77.0,WeatherDisplay:10.37,2013-06-10 13:29:00,
2013-06-10 09:34:00,69.3,69.0,29.95,SSE,168,4.5,4.6,99,0.04,RA,,0.31,160.0,WeatherDisplay:10.37,2013-06-10 13:34:00,
2013-06-10 09:39:00,69.3,69.0,29.95,SSE,152,0.0,0.0,99,0.05,RA,,0.32,172.0,WeatherDisplay:10.37,2013-06-10 13:39:00,
2013-06-10 09:44:00,69.6,69.0,29.95,SE,139,0.5,4.5,98,0.04,-RA,,0.32,167.0,WeatherDisplay:10.37,2013-06-10 13:44:00,
2013-06-10 09:49:00,69.6,69.0,29.95,South,175,0.3,3.5,98,0.05,-RA,,0.33,105.0,WeatherDisplay:10.37,2013-06-10 13:49:00,
2013-06-10 09:54:00,69.6,69.0,29.95,SE,132,2.0,6.0,98,0.05,-RA,,0.33,148.0,WeatherDisplay:10.37,2013-06-10 13:54:00,
2013-06-10 09:59:00,69.6,69.0,29.94,SE,144,1.0,4.6,98,0.06,-RA,,0.34,151.0,WeatherDisplay:10.37,2013-06-10 13:59:00,
2013-06-10 10:04:00,69.8,69.2,29.94,SE,143,2.3,4.5,98,0.06,-RA,,0.34,98.0,WeatherDisplay:10.37,2013-06-10 14:04:00,
2013-06-10 10:09:00,69.8,69.2,29.94,SE,143,0.1,3.5,98,0.06,-RA,,0.35,142.0,WeatherDisplay:10.37,2013-06-10 14:09:00,
2013-06-10 10:14:00,69.8,69.2,29.93,South,169,3.7,7.5,98,0.06,-RA,,0.35,301.0,WeatherDisplay:10.37,2013-06-10 14:14:00,
2013-06-10 10:19:00,70.3,69.7,29.93,East,92,0.0,0.0,98,0.05,-RA,,0.35,202.0,WeatherDisplay:10.37,2013-06-10 14:19:00,
2013-06-10 10:24:00,70.3,69.7,29.93,SSE,157,4.1,4.6,98,0.05,-RA,,0.35,162.0,WeatherDisplay:10.37,2013-06-10 14:24:00,
2013-06-10 10:29:00,70.6,70.0,29.93,ESE,121,0.0,1.2,98,0.04,-RA,,0.35,207.0,WeatherDisplay:10.37,2013-06-10 14:29:00,
2013-06-10 10:34:00,70.6,70.0,29.93,SE,142,1.9,4.6,98,0.04,-RA,,0.35,199.0,WeatherDisplay:10.37,2013-06-10 14:34:00,
2013-06-10 10:39:00,70.8,70.2,29.93,SSE,159,1.2,6.0,98,0.03,-RA,,0.35,153.0,WeatherDisplay:10.37,2013-06-10 14:39:00,
2013-06-10 10:44:00,70.6,70.0,29.93,SSE,161,0.1,1.2,98,0.03,-RA,,0.35,195.0,WeatherDisplay:10.37,2013-06-10 14:44:00,
2013-06-10 10:49:00,70.9,70.3,29.93,SE,124,5.7,9.2,98,0.02,-RA,,0.35,192.0,WeatherDisplay:10.37,2013-06-10 14:49:00,
2013-06-10 10:54:00,70.9,70.3,29.92,SSE,163,2.5,9.2,98,0.02,-RA,,0.35,125.0,WeatherDisplay:10.37,2013-06-10 14:54:00,
2013-06-10 10:59:00,70.6,70.0,29.92,SSE,152,0.0,0.0,98,0.02,-RA,,0.36,77.0,WeatherDisplay:10.37,2013-06-10 14:59:00,
2013-06-10 11:04:00,70.6,70.0,29.92,ESE,107,1.6,5.8,98,0.02,-RA,,0.36,174.0,WeatherDisplay:10.37,2013-06-10 15:04:00,
2013-06-10 11:09:00,70.9,70.3,29.92,South,177,0.1,1.5,98,0.01,-RA,,0.36,135.0,WeatherDisplay:10.37,2013-06-10 15:09:00,
2013-06-10 11:14:00,71.3,70.7,29.92,SE,125,4.5,6.0,98,0.02,RA,,0.37,230.0,WeatherDisplay:10.37,2013-06-10 15:14:00,
2013-06-10 11:19:00,71.3,70.7,29.92,SSE,161,1.2,3.5,98,0.02,RA,,0.37,218.0,WeatherDisplay:10.37,2013-06-10 15:19:00,
2013-06-10 11:24:00,71.5,70.9,29.91,ESE,111,2.9,8.1,98,0.02,OVC,,0.38,216.0,WeatherDisplay:10.37,2013-06-10 15:24:00,
2013-06-10 11:29:00,71.3,70.7,29.91,SSE,163,5.5,6.0,98,0.03,RA,,0.38,209.0,WeatherDisplay:10.37,2013-06-10 15:29:00,
2013-06-10 11:34:00,71.5,70.9,29.91,South,176,1.7,3.5,98,0.03,RA,,0.38,158.0,WeatherDisplay:10.37,2013-06-10 15:34:00,
2013-06-10 11:39:00,71.3,70.7,29.91,South,182,4.7,8.1,98,0.03,OVC,,0.38,153.0,WeatherDisplay:10.37,2013-06-10 15:39:00,
2013-06-10 11:44:00,71.5,70.9,29.91,SE,143,0.0,0.0,98,0.04,RA,,0.39,176.0,WeatherDisplay:10.37,2013-06-10 15:44:00,
2013-06-10 11:49:00,71.6,71.0,29.91,SE,143,2.9,4.6,98,0.04,RA,,0.39,171.0,WeatherDisplay:10.37,2013-06-10 15:49:00,
2013-06-10 11:54:00,71.5,70.6,29.90,SSE,157,3.2,8.1,97,0.04,OVC,,0.39,141.0,WeatherDisplay:10.37,2013-06-10 15:54:00,
2013-06-10 11:59:00,71.5,70.6,29.91,South,175,3.1,9.2,97,0.03,OVC,,0.40,72.0,WeatherDisplay:10.37,2013-06-10 15:59:00,
2013-06-10 12:04:00,71.3,70.4,29.90,South,179,2.4,4.5,97,0.04,RA,,0.40,56.0,WeatherDisplay:10.37,2013-06-10 16:04:00,
2013-06-10 12:09:00,71.3,70.4,29.90,SSE,164,3.1,4.5,97,0.05,RA,,0.41,60.0,WeatherDisplay:10.37,2013-06-10 16:09:00,
2013-06-10 12:14:00,71.3,70.4,29.90,SSE,163,0.0,0.0,97,0.04,RA,,0.41,72.0,WeatherDisplay:10.37,2013-06-10 16:14:00,
2013-06-10 12:19:00,71.3,70.4,29.90,SSE,153,1.0,4.6,97,0.05,RA,,0.42,79.0,WeatherDisplay:10.37,2013-06-10 16:19:00,
2013-06-10 12:24:00,71.5,70.6,29.90,SSE,153,0.0,0.0,97,0.06,RA,,0.43,74.0,WeatherDisplay:10.37,2013-06-10 16:24:00,
2013-06-10 12:29:00,71.5,70.6,29.90,SSE,153,2.2,4.6,97,0.06,RA,,0.44,72.0,WeatherDisplay:10.37,2013-06-10 16:29:00,
2013-06-10 12:34:00,71.5,70.6,29.89,SSE,153,0.0,3.5,97,0.07,RA,,0.45,79.0,WeatherDisplay:10.37,2013-06-10 16:34:00,
2013-06-10 12:39:00,71.5,70.6,29.89,SE,143,1.4,3.0,97,0.08,RA,,0.46,74.0,WeatherDisplay:10.37,2013-06-10 16:39:00,
2013-06-10 12:44:00,71.6,70.7,29.88,SSE,167,3.2,3.5,97,0.11,RA,,0.50,109.0,WeatherDisplay:10.37,2013-06-10 16:44:00,
2013-06-10 12:49:00,71.6,71.0,29.88,SE,144,0.8,4.5,98,0.12,RA,,0.51,135.0,WeatherDisplay:10.37,2013-06-10 16:49:00,
2013-06-10 12:54:00,71.8,71.2,29.87,SSE,147,0.2,4.6,98,0.13,RA,,0.52,128.0,WeatherDisplay:10.37,2013-06-10 16:54:00,
2013-06-10 12:59:00,71.8,71.2,29.87,SSE,149,3.8,5.8,98,0.13,RA,,0.52,144.0,WeatherDisplay:10.37,2013-06-10 16:59:00,
2013-06-10 13:04:00,72.0,71.4,29.87,SSE,159,7.2,13.8,98,0.12,OVC,,0.52,162.0,WeatherDisplay:10.37,2013-06-10 17:04:00,
2013-06-10 13:09:00,72.1,71.5,29.86,South,186,4.8,8.1,98,0.12,RA,,0.53,202.0,WeatherDisplay:10.37,2013-06-10 17:09:00,
2013-06-10 13:14:00,72.3,71.7,29.86,SSE,153,9.1,13.5,98,0.12,RA,,0.53,257.0,WeatherDisplay:10.37,2013-06-10 17:14:00,
2013-06-10 13:19:00,72.3,71.4,29.86,SSE,162,8.9,13.8,97,0.11,OVC,,0.53,360.0,WeatherDisplay:10.37,2013-06-10 17:19:00,
2013-06-10 13:24:00,72.8,72.2,29.85,South,169,6.4,8.1,98,0.11,RA,,0.54,246.0,WeatherDisplay:10.37,2013-06-10 17:24:00,
2013-06-10 13:29:00,72.8,71.9,29.85,SSE,162,7.5,12.0,97,0.10,RA,,0.54,174.0,WeatherDisplay:10.37,2013-06-10 17:29:00,
2013-06-10 13:34:00,72.8,71.9,29.85,South,173,7.9,9.0,97,0.09,OVC,,0.54,269.0,WeatherDisplay:10.37,2013-06-10 17:34:00,
2013-06-10 13:39:00,73.0,72.1,29.85,SSE,153,7.4,9.2,97,0.08,OVC,,0.54,304.0,WeatherDisplay:10.37,2013-06-10 17:39:00,
2013-06-10 13:44:00,73.0,72.1,29.84,South,174,7.7,10.5,97,0.04,OVC,,0.54,330.0,WeatherDisplay:10.37,2013-06-10 17:44:00,
2013-06-10 13:49:00,73.2,72.3,29.84,SSE,160,2.8,16.1,97,0.03,OVC,,0.54,374.0,WeatherDisplay:10.37,2013-06-10 17:49:00,
2013-06-10 13:54:00,73.9,73.0,29.83,SSE,159,5.7,8.1,97,0.02,OVC,,0.54,413.0,WeatherDisplay:10.37,2013-06-10 17:54:00,
2013-06-10 13:59:00,73.7,72.5,29.83,South,180,9.7,16.1,96,0.02,OVC,,0.54,483.0,WeatherDisplay:10.37,2013-06-10 17:59:00,
2013-06-10 14:04:00,74.0,73.1,29.83,SSE,159,9.5,13.5,97,0.02,OVC,,0.54,573.0,WeatherDisplay:10.37,2013-06-10 18:04:00,
2013-06-10 14:09:00,74.2,73.0,29.83,SSE,156,7.2,8.1,96,0.01,OVC,,0.54,388.0,WeatherDisplay:10.37,2013-06-10 18:09:00,
2013-06-10 14:14:00,74.4,72.9,29.82,SSE,164,9.5,16.1,95,0.01,-RA,,0.54,381.0,WeatherDisplay:10.37,2013-06-10 18:14:00,
2013-06-10 14:19:00,74.9,73.4,29.82,SSE,165,0.5,13.8,95,0.01,-RA,,0.54,403.0,WeatherDisplay:10.37,2013-06-10 18:19:00,
2013-06-10 14:24:00,75.3,73.8,29.82,SSE,161,5.1,9.0,95,0.00,-RA,,0.54,517.0,WeatherDisplay:10.37,2013-06-10 18:24:00,
2013-06-10 14:29:00,75.8,73.9,29.81,SSE,166,2.2,10.4,94,0.00,-RA,,0.54,496.0,WeatherDisplay:10.37,2013-06-10 18:29:00,
2013-06-10 14:34:00,76.1,73.9,29.81,South,180,2.2,5.8,93,0.00,-RA,,0.54,800.0,WeatherDisplay:10.37,2013-06-10 18:34:00,
2013-06-10 14:39:00,76.5,73.7,29.81,SSE,156,11.4,15.0,91,0.00,-RA,,0.54,817.0,WeatherDisplay:10.37,2013-06-10 18:39:00,
2013-06-10 14:44:00,77.0,73.5,29.81,SSE,166,2.7,7.5,89,0.00,-RA,,0.54,828.0,WeatherDisplay:10.37,2013-06-10 18:44:00,
2013-06-10 14:49:00,77.4,73.2,29.81,SSE,162,11.8,18.4,87,0.00,-RA,,0.54,612.0,WeatherDisplay:10.37,2013-06-10 18:49:00,
2013-06-10 14:54:00,77.7,73.5,29.81,South,172,7.6,10.5,87,0.00,-RA,,0.54,540.0,WeatherDisplay:10.37,2013-06-10 18:54:00,
2013-06-10 15:00:00,77.7,72.8,29.81,SSE,165,10.5,13.5,85,0.00,-RA,,0.54,454.0,WeatherDisplay:10.37,2013-06-10 19:00:00,
2013-06-10 15:05:00,77.9,72.7,29.80,SSE,161,8.1,10.4,84,0.00,BKN,,0.54,330.0,WeatherDisplay:10.37,2013-06-10 19:05:00,
2013-06-10 15:10:00,78.1,72.9,29.79,SW,221,5.6,16.1,84,0.00,BKN,,0.54,1014.0,WeatherDisplay:10.37,2013-06-10 19:10:00,
2013-06-10 15:15:00,78.6,71.9,29.79,SSE,156,8.4,16.1,80,0.01,RA,,0.55,1014.0,WeatherDisplay:10.37,2013-06-10 19:15:00,
2013-06-10 15:20:00,78.6,72.3,29.79,SSE,149,7.1,9.2,81,0.01,RA,,0.55,295.0,WeatherDisplay:10.37,2013-06-10 19:20:00,
2013-06-10 15:25:00,78.5,71.8,29.78,SW,223,3.4,8.1,80,0.01,BKN,,0.55,385.0,WeatherDisplay:10.37,2013-06-10 19:25:00,
2013-06-10 15:30:00,78.6,71.9,29.78,SSW,195,8.4,15.0,80,0.01,BKN,,0.55,424.0,WeatherDisplay:10.37,2013-06-10 19:30:00,
2013-06-10 15:35:00,79.0,72.7,29.78,South,186,4.2,13.8,81,0.01,OVC,,0.55,345.0,WeatherDisplay:10.37,2013-06-10 19:35:00,
2013-06-10 15:40:00,79.2,72.1,29.77,SSE,158,5.6,9.0,79,0.01,OVC,,0.55,302.0,WeatherDisplay:10.37,2013-06-10 19:40:00,
2013-06-10 15:45:00,79.2,72.1,29.77,SSE,153,3.9,10.4,79,0.01,OVC,,0.55,343.0,WeatherDisplay:10.37,2013-06-10 19:45:00,
2013-06-10 15:50:00,79.2,71.7,29.77,ESE,121,7.6,9.2,78,0.01,OVC,,0.55,309.0,WeatherDisplay:10.37,2013-06-10 19:50:00,
2013-06-10 15:55:00,78.6,71.2,29.77,SSE,161,12.2,19.6,78,0.01,OVC,,0.55,223.0,WeatherDisplay:10.37,2013-06-10 19:55:00,
2013-06-10 16:00:00,79.0,72.3,29.76,SSE,159,9.0,15.0,80,0.01,OVC,,0.55,742.0,WeatherDisplay:10.37,2013-06-10 20:00:00,
2013-06-10 16:05:00,79.8,73.1,29.76,SSE,158,4.0,10.4,80,0.01,OVC,,0.55,330.0,WeatherDisplay:10.37,2013-06-10 20:05:00,
2013-06-10 16:10:00,79.8,71.9,29.76,South,175,4.9,9.2,77,0.01,OVC,,0.55,230.0,WeatherDisplay:10.37,2013-06-10 20:10:00,
2013-06-10 16:15:00,79.4,71.6,29.76,SSE,163,9.1,16.1,77,0.00,OVC,,0.55,255.0,WeatherDisplay:10.37,2013-06-10 20:15:00,
2013-06-10 16:20:00,79.2,71.4,29.75,SE,144,5.4,10.4,77,0.00,OVC,,0.55,285.0,WeatherDisplay:10.37,2013-06-10 20:20:00,
2013-06-10 16:25:00,79.2,71.4,29.75,SE,137,13.9,16.5,77,0.00,OVC,,0.55,294.0,WeatherDisplay:10.37,2013-06-10 20:25:00,
2013-06-10 16:30:00,79.0,71.2,29.75,SSE,164,11.8,16.1,77,0.00,OVC,,0.55,315.0,WeatherDisplay:10.37,2013-06-10 20:30:00,
2013-06-10 16:35:00,79.4,71.6,29.75,SSE,165,10.0,11.5,77,0.00,OVC,,0.55,464.0,WeatherDisplay:10.37,2013-06-10 20:35:00,
2013-06-10 16:40:00,79.8,71.2,29.75,SE,146,14.2,18.0,75,0.00,OVC,,0.55,506.0,WeatherDisplay:10.37,2013-06-10 20:40:00,
2013-06-10 16:45:00,79.9,70.9,29.74,SSE,163,9.9,10.4,74,0.00,OVC,,0.55,301.0,WeatherDisplay:10.37,2013-06-10 20:45:00,
2013-06-10 16:50:00,80.3,72.0,29.74,SE,144,7.2,15.0,76,0.00,OVC,,0.55,828.0,WeatherDisplay:10.37,2013-06-10 20:50:00,
2013-06-10 16:55:00,80.7,72.4,29.74,SSE,150,1.3,5.8,76,0.00,OVC,,0.55,415.0,WeatherDisplay:10.37,2013-06-10 20:55:00,
2013-06-10 17:00:00,81.2,73.3,29.74,SSE,157,3.5,9.0,77,0.00,OVC,,0.55,770.0,WeatherDisplay:10.37,2013-06-10 21:00:00,
2013-06-10 17:05:00,81.1,71.6,29.74,South,173,8.6,10.4,73,0.00,-RA,,0.55,186.0,WeatherDisplay:10.37,2013-06-10 21:05:00,
2013-06-10 17:10:00,80.3,71.3,29.74,SSE,155,8.7,13.8,74,0.00,-RA,,0.55,95.0,WeatherDisplay:10.37,2013-06-10 21:10:00,
2013-06-10 17:15:00,79.6,70.6,29.74,SSE,159,9.7,15.0,74,0.00,-RA,,0.55,44.0,WeatherDisplay:10.37,2013-06-10 21:15:00,
2013-06-10 17:20:00,79.0,70.8,29.74,SSE,159,5.7,8.1,76,0.00,-RA,,0.55,42.0,WeatherDisplay:10.37,2013-06-10 21:20:00,
2013-06-10 17:25:00,78.8,71.0,29.73,South,169,1.6,4.6,77,0.00,-RA,,0.55,51.0,WeatherDisplay:10.37,2013-06-10 21:25:00,
2013-06-10 17:30:00,78.5,70.7,29.73,SSW,210,3.0,8.1,77,0.00,-RA,,0.55,35.0,WeatherDisplay:10.37,2013-06-10 21:30:00,
2013-06-10 17:35:00,78.3,70.5,29.73,South,173,3.4,6.0,77,0.00,-RA,,0.55,32.0,WeatherDisplay:10.37,2013-06-10 21:35:00,
2013-06-10 17:40:00,78.1,71.1,29.73,South,186,1.8,4.5,79,0.01,-RA,,0.56,23.0,WeatherDisplay:10.37,2013-06-10 21:40:00,
2013-06-10 17:45:00,77.9,71.2,29.73,South,186,0.0,0.0,80,0.01,-RA,,0.56,16.0,WeatherDisplay:10.37,2013-06-10 21:45:00,
2013-06-10 17:50:00,77.6,71.3,29.74,SW,228,12.4,16.5,81,0.01,-RA,,0.56,5.0,WeatherDisplay:10.37,2013-06-10 21:50:00,
2013-06-10 17:55:00,73.9,68.1,29.76,SW,219,19.6,24.2,82,0.12,-RA,,0.73,0.0,WeatherDisplay:10.37,2013-06-10 21:55:00,
2013-06-10 18:00:00,70.8,67.1,29.76,SSW,211,11.9,15.0,88,0.37,-RA,,0.97,0.0,WeatherDisplay:10.37,2013-06-10 22:00:00,
2013-06-10 18:05:00,69.6,66.5,29.75,SSE,161,15.6,19.6,90,0.67,RA,,1.23,5.0,WeatherDisplay:10.37,2013-06-10 22:05:00,
2013-06-10 18:10:00,69.1,67.0,29.75,SW,219,9.8,15.0,93,0.72,RA,,1.28,5.0,WeatherDisplay:10.37,2013-06-10 22:10:00,
2013-06-10 18:15:00,69.1,67.3,29.75,SW,232,7.6,10.4,94,0.74,RA,,1.29,5.0,WeatherDisplay:10.37,2013-06-10 22:15:00,
2013-06-10 18:20:00,69.1,67.6,29.76,SW,214,6.1,10.4,95,0.78,RA,,1.34,9.0,WeatherDisplay:10.37,2013-06-10 22:20:00,
2013-06-10 18:25:00,69.1,67.9,29.76,South,190,8.4,10.4,96,0.79,RA,,1.34,16.0,WeatherDisplay:10.37,2013-06-10 22:25:00,
2013-06-10 18:30:00,69.1,67.9,29.76,SW,229,1.1,5.8,96,0.79,RA,,1.34,21.0,WeatherDisplay:10.37,2013-06-10 22:30:00,
2013-06-10 18:35:00,69.1,67.9,29.76,SW,219,0.8,9.2,96,0.80,RA,,1.35,28.0,WeatherDisplay:10.37,2013-06-10 22:35:00,
2013-06-10 18:40:00,69.1,67.9,29.76,SW,216,2.2,3.5,96,0.79,RA,,1.35,37.0,WeatherDisplay:10.37,2013-06-10 22:40:00,
2013-06-10 18:45:00,69.1,68.2,29.76,SW,227,4.5,10.4,97,0.80,RA,,1.36,42.0,WeatherDisplay:10.37,2013-06-10 22:45:00,
2013-06-10 18:50:00,69.1,68.2,29.76,SW,225,9.6,11.5,97,0.80,RA,,1.36,58.0,WeatherDisplay:10.37,2013-06-10 22:50:00,
2013-06-10 18:55:00,69.1,68.2,29.76,SW,226,5.5,6.0,97,0.69,BKN,,1.36,90.0,WeatherDisplay:10.37,2013-06-10 22:55:00,
2013-06-10 19:00:00,69.3,68.4,29.75,SW,222,3.4,5.8,97,0.44,BKN,,1.36,148.0,WeatherDisplay:10.37,2013-06-10 23:00:00,
2013-06-10 19:05:00,69.4,68.8,29.75,SW,215,1.8,8.1,98,0.15,RA,,1.37,123.0,WeatherDisplay:10.37,2013-06-10 23:05:00,
2013-06-10 19:10:00,69.6,69.0,29.75,SW,227,6.9,10.4,98,0.10,RA,,1.37,81.0,WeatherDisplay:10.37,2013-06-10 23:10:00,
2013-06-10 19:15:00,69.6,69.0,29.75,SW,219,7.9,9.2,98,0.08,OVC,,1.37,65.0,WeatherDisplay:10.37,2013-06-10 23:15:00,
2013-06-10 19:20:00,69.6,69.0,29.75,WSW,240,6.4,8.1,98,0.04,OVC,,1.37,83.0,WeatherDisplay:10.37,2013-06-10 23:20:00,
2013-06-10 19:25:00,69.8,69.2,29.75,WSW,241,5.4,11.5,98,0.03,OVC,,1.37,69.0,WeatherDisplay:10.37,2013-06-10 23:25:00,
2013-06-10 19:30:00,69.8,69.2,29.75,SW,234,8.1,9.0,98,0.03,OVC,,1.37,32.0,WeatherDisplay:10.37,2013-06-10 23:30:00,
2013-06-10 19:35:00,69.6,69.0,29.74,SSW,209,5.1,6.0,98,0.02,OVC,,1.37,26.0,WeatherDisplay:10.37,2013-06-10 23:35:00,
2013-06-10 19:40:00,69.6,69.0,29.73,South,187,0.4,3.0,98,0.02,OVC,,1.37,33.0,WeatherDisplay:10.37,2013-06-10 23:40:00,
2013-06-10 19:45:00,69.6,69.0,29.73,South,188,4.2,6.0,98,0.01,-RA,,1.37,25.0,WeatherDisplay:10.37,2013-06-10 23:45:00,
2013-06-10 19:50:00,69.4,68.8,29.74,SW,232,6.7,9.2,98,0.01,-RA,,1.37,26.0,WeatherDisplay:10.37,2013-06-10 23:50:00,
2013-06-10 19:55:00,69.4,68.8,29.74,SW,230,0.2,8.1,98,0.01,-RA,,1.37,28.0,WeatherDisplay:10.37,2013-06-10 23:55:00,
2013-06-10 20:00:00,69.4,69.1,29.74,SW,222,3.7,8.1,99,0.01,-RA,,1.37,23.0,WeatherDisplay:10.37,2013-06-11 00:00:00,
2013-06-10 20:20:00,69.4,69.1,29.75,SW,225,5.4,9.2,99,0.00,-RA,,1.37,9.0,WeatherDisplay:10.37,2013-06-11 00:20:00,
2013-06-10 20:25:00,69.4,69.1,29.75,SW,225,3.8,5.8,99,0.00,-RA,,1.37,5.0,WeatherDisplay:10.37,2013-06-11 00:25:00,
2013-06-10 20:30:00,69.4,69.1,29.75,SW,225,2.1,4.5,99,0.00,-RA,,1.37,0.0,WeatherDisplay:10.37,2013-06-11 00:30:00,
2013-06-10 20:35:00,69.4,69.1,29.75,SW,223,2.4,4.6,99,0.00,-RA,,1.37,0.0,WeatherDisplay:10.37,2013-06-11 00:35:00,
2013-06-10 20:40:00,69.3,69.0,29.75,SW,223,1.3,4.6,99,0.00,-RA,,1.37,0.0,WeatherDisplay:10.37,2013-06-11 00:40:00,
2013-06-10 20:45:00,69.3,69.0,29.75,SW,224,5.1,5.8,99,0.00,-RA,,1.37,0.0,WeatherDisplay:10.37,2013-06-11 00:45:00,
2013-06-10 20:50:00,69.3,69.0,29.75,WSW,242,0.0,3.5,99,0.00,-RA,,1.37,0.0,WeatherDisplay:10.37,2013-06-11 00:50:00,
2013-06-10 20:55:00,69.3,69.0,29.75,WSW,241,0.1,3.5,99,0.00,-RA,,1.37,0.0,WeatherDisplay:10.37,2013-06-11 00:55:00,
2013-06-10 21:00:00,69.3,69.0,29.76,WSW,237,4.4,6.0,99,0.00,-RA,,1.37,0.0,WeatherDisplay:10.37,2013-06-11 01:00:00,
2013-06-10 21:05:00,69.1,68.8,29.76,WSW,237,0.1,4.6,99,0.00,-RA,,1.37,0.0,WeatherDisplay:10.37,2013-06-11 01:05:00,
2013-06-10 21:10:00,69.1,68.8,29.76,WSW,237,3.7,4.6,99,0.00,-RA,,1.37,0.0,WeatherDisplay:10.37,2013-06-11 01:10:00,
2013-06-10 21:15:00,69.1,68.8,29.76,WSW,237,0.6,4.6,99,0.00,OVC,,1.37,0.0,WeatherDisplay:10.37,2013-06-11 01:15:00,
2013-06-10 21:20:00,69.1,68.8,29.76,WSW,237,0.5,1.2,99,0.00,OVC,,1.37,0.0,WeatherDisplay:10.37,2013-06-11 01:20:00,
2013-06-10 21:25:00,68.9,68.6,29.76,WSW,237,0.1,4.6,99,0.00,OVC,,1.37,0.0,WeatherDisplay:10.37,2013-06-11 01:25:00,
2013-06-10 21:30:00,68.9,68.6,29.76,WSW,237,4.9,6.0,99,0.00,OVC,,1.37,0.0,WeatherDisplay:10.37,2013-06-11 01:30:00,
2013-06-10 21:35:00,68.8,68.5,29.77,SW,227,6.1,8.1,99,0.00,OVC,,1.37,0.0,WeatherDisplay:10.37,2013-06-11 01:35:00,
2013-06-10 21:40:00,68.8,68.5,29.77,SW,227,3.3,8.1,99,0.00,OVC,,1.37,0.0,WeatherDisplay:10.37,2013-06-11 01:40:00,
2013-06-10 21:45:00,68.6,68.3,29.77,SW,227,0.0,0.0,99,0.00,OVC,,1.37,0.0,WeatherDisplay:10.37,2013-06-11 01:45:00,
2013-06-10 21:50:00,68.6,68.3,29.77,SW,227,1.3,3.5,99,0.00,OVC,,1.37,0.0,WeatherDisplay:10.37,2013-06-11 01:50:00,
2013-06-10 21:55:00,68.6,68.3,29.77,South,169,0.5,4.5,99,0.00,OVC,,1.37,0.0,WeatherDisplay:10.37,2013-06-11 01:55:00,
2013-06-10 22:00:00,68.6,68.3,29.77,South,169,0.1,0.0,99,0.00,OVC,,1.37,0.0,WeatherDisplay:10.37,2013-06-11 02:00:00,
2013-06-10 22:05:00,68.6,68.3,29.77,South,169,0.0,1.2,99,0.00,OVC,,1.37,0.0,WeatherDisplay:10.37,2013-06-11 02:05:00,
2013-06-10 22:10:00,68.4,68.1,29.76,South,169,0.0,0.0,99,0.00,OVC,,1.37,0.0,WeatherDisplay:10.37,2013-06-11 02:10:00,
2013-06-10 22:15:00,68.4,68.1,29.77,South,169,0.0,3.5,99,0.00,OVC,,1.37,0.0,WeatherDisplay:10.37,2013-06-11 02:15:00,
2013-06-10 22:20:00,68.4,68.1,29.77,South,171,2.3,4.5,99,0.00,OVC,,1.37,0.0,WeatherDisplay:10.37,2013-06-11 02:20:00,
2013-06-10 22:25:00,68.4,68.1,29.77,South,171,0.0,1.5,99,0.00,OVC,,1.37,0.0,WeatherDisplay:10.37,2013-06-11 02:25:00,
2013-06-10 22:30:00,68.3,68.0,29.77,South,171,0.0,1.2,99,0.00,OVC,,1.37,0.0,WeatherDisplay:10.37,2013-06-11 02:30:00,
2013-06-10 22:35:00,68.3,68.0,29.77,South,171,0.5,1.2,99,0.00,OVC,,1.37,0.0,WeatherDisplay:10.37,2013-06-11 02:35:00,
2013-06-10 22:40:00,68.3,68.0,29.77,South,171,0.2,1.5,99,0.00,OVC,,1.37,0.0,WeatherDisplay:10.37,2013-06-11 02:40:00,
2013-06-10 22:45:00,68.3,68.0,29.78,SSW,208,0.0,4.6,99,0.00,OVC,,1.37,0.0,WeatherDisplay:10.37,2013-06-11 02:45:00,
2013-06-10 22:50:00,68.3,68.0,29.78,SSW,208,3.8,4.6,99,0.00,OVC,,1.37,0.0,WeatherDisplay:10.37,2013-06-11 02:50:00,
2013-06-10 22:55:00,68.1,67.8,29.78,SSW,208,0.0,1.2,99,0.00,OVC,,1.37,0.0,WeatherDisplay:10.37,2013-06-11 02:55:00,
2013-06-10 23:00:00,68.1,67.8,29.78,SSW,209,5.2,6.0,99,0.00,OVC,,1.37,0.0,WeatherDisplay:10.37,2013-06-11 03:00:00,
2013-06-10 23:05:00,68.1,67.8,29.78,SSW,208,0.6,3.5,99,0.00,OVC,,1.37,0.0,WeatherDisplay:10.37,2013-06-11 03:05:00,
2013-06-10 23:10:00,68.1,67.8,29.78,SSW,205,1.3,3.5,99,0.00,OVC,,1.37,0.0,WeatherDisplay:10.37,2013-06-11 03:10:00,
2013-06-10 23:15:00,67.9,67.6,29.78,SSW,207,1.2,4.6,99,0.00,OVC,,1.37,0.0,WeatherDisplay:10.37,2013-06-11 03:15:00,
2013-06-10 23:20:00,67.8,67.5,29.78,SSW,206,3.1,3.5,99,0.00,OVC,,1.37,0.0,WeatherDisplay:10.37,2013-06-11 03:20:00,
2013-06-10 23:25:00,67.8,67.5,29.78,SSW,206,2.0,4.6,99,0.00,OVC,,1.37,0.0,WeatherDisplay:10.37,2013-06-11 03:25:00,
2013-06-10 23:30:00,67.6,67.3,29.78,SSW,206,0.0,0.0,99,0.00,OVC,,1.37,0.0,WeatherDisplay:10.37,2013-06-11 03:30:00,
2013-06-10 23:35:00,67.6,67.3,29.78,SSW,206,0.0,0.0,99,0.00,OVC,,1.37,0.0,WeatherDisplay:10.37,2013-06-11 03:35:00,
2013-06-10 23:40:00,67.4,67.1,29.78,SSW,206,0.0,0.0,99,0.00,OVC,,1.37,0.0,WeatherDisplay:10.37,2013-06-11 03:40:00,
2013-06-10 23:45:00,67.3,67.0,29.78,SSW,206,0.1,1.5,99,0.00,OVC,,1.37,0.0,WeatherDisplay:10.37,2013-06-11 03:45:00,
2013-06-10 23:50:00,67.3,67.0,29.78,SSW,206,0.0,0.0,99,0.00,OVC,,1.37,0.0,WeatherDisplay:10.37,2013-06-11 03:50:00,
2013-06-10 23:55:00,67.3,67.0,29.78,SSW,206,0.0,0.0,99,0.00,OVC,,1.37,0.0,WeatherDisplay:10.37,2013-06-11 03:55:00,